createdAt,value
2022-09-09T06:59:18.284Z,3844.8
2022-09-09T07:04:55.910Z,3845.5
2022-09-09T07:10:30.566Z,3845.1
2022-09-09T07:16:06.322Z,3843.1
2022-09-09T07:21:41.558Z,3841.9
2022-09-09T07:27:17.301Z,3842.6
2022-09-09T07:32:52.422Z,3842.3
2022-09-09T07:38:27.214Z,3845.3
2022-09-09T07:44:02.226Z,3843
2022-09-09T07:49:36.925Z,3842.3
2022-09-09T07:55:12.049Z,3840.3
2022-09-09T08:00:46.872Z,3839.9
2022-09-09T08:06:21.780Z,3843.1
2022-09-09T08:11:56.733Z,3843.6
2022-09-09T08:17:31.409Z,3841.4
2022-09-09T08:23:06.986Z,3841.8
2022-09-09T08:28:42.477Z,3838.3
2022-09-09T08:34:17.541Z,3842.6
2022-09-09T08:39:56.152Z,3841.1
2022-09-09T08:45:31.120Z,3841.3
2022-09-09T08:51:05.933Z,3838.9
2022-09-09T08:57:02.839Z,3838.9
2022-09-09T09:02:36.611Z,3842.1
2022-09-09T09:08:12.617Z,3841.3
2022-09-09T09:13:47.601Z,3840.8
2022-09-09T09:19:23.757Z,3838.8
2022-09-09T09:24:59.799Z,3839.8
2022-09-09T09:30:35.340Z,3839.6
2022-09-09T09:36:10.114Z,3842.6
2022-09-09T09:41:45.071Z,3840.9
2022-09-09T09:47:20.255Z,3840.8
2022-09-09T09:52:55.079Z,3838.4
2022-09-09T09:58:30.545Z,3838.6
2022-09-09T10:04:05.650Z,3837.1
2022-09-09T10:09:40.578Z,3838.8
2022-09-09T10:15:16.376Z,3840.9
2022-09-09T10:20:51.423Z,3836.6
2022-09-09T10:26:26.237Z,3839.4
2022-09-09T10:32:01.110Z,3839.3
2022-09-09T10:37:36.380Z,3839.6
2022-09-09T10:43:11.200Z,3837.8
2022-09-09T10:48:46.026Z,3839.6
2022-09-09T10:54:21.466Z,3838.6
2022-09-09T10:59:56.231Z,3835.7
2022-09-09T11:05:31.041Z,3838.9
2022-09-09T11:11:06.177Z,3837.1
2022-09-09T11:16:41.477Z,3838.1
2022-09-09T11:22:16.706Z,3837.6
2022-09-09T11:27:52.330Z,3838.6
2022-09-09T11:33:27.571Z,3836.4
2022-09-09T11:39:03.900Z,3839.9
2022-09-09T11:44:38.839Z,3838.6
2022-09-09T11:50:13.723Z,3837.8
2022-09-09T11:55:49.161Z,3838.6
2022-09-09T12:01:24.229Z,3836.4
2022-09-09T12:06:59.146Z,3839.1
2022-09-09T12:12:37.457Z,3835.1
2022-09-09T12:18:15.587Z,3837.9
2022-09-09T12:23:50.565Z,3835.6
2022-09-09T12:29:27.369Z,3835.9
2022-09-09T12:35:02.709Z,3836.6
2022-09-09T12:40:37.571Z,3837.1
2022-09-09T12:46:14.214Z,3833.9
2022-09-09T12:51:49.636Z,3834.6
2022-09-09T12:57:26.662Z,3834.6
2022-09-09T13:03:03.922Z,3832.4
2022-09-09T13:08:39.919Z,3832.1
2022-09-09T13:14:15.838Z,3831.9
2022-09-09T13:19:50.833Z,3833.2
2022-09-09T13:25:25.731Z,3832.7
2022-09-09T13:31:14.432Z,3834.2
2022-09-09T13:36:49.571Z,3831.6
2022-09-09T13:42:25.047Z,3833.9
2022-09-09T13:48:00.343Z,3831.6
2022-09-09T13:53:37.019Z,3832.7
2022-09-09T13:59:13.168Z,3830.4
2022-09-09T14:04:50.019Z,3832.1
2022-09-09T14:10:25.189Z,3832.1
2022-09-09T14:16:01.669Z,3833.6
2022-09-09T14:21:36.792Z,3829.7
2022-09-09T14:27:11.985Z,3833.6
2022-09-09T14:32:47.056Z,3832.4
2022-09-09T14:38:23.553Z,3830.2
2022-09-09T14:43:58.545Z,3832.9
2022-09-09T14:49:33.334Z,3831.4
2022-09-09T14:55:09.178Z,3831.6
2022-09-09T15:00:44.047Z,3830.9
2022-09-09T15:06:18.799Z,3829.9
2022-09-09T15:11:53.676Z,3833.7
2022-09-09T15:17:29.733Z,3830.2
2022-09-09T15:23:04.813Z,3827.4
2022-09-09T15:28:41.529Z,3828.7
2022-09-09T15:34:16.288Z,3828.9
2022-09-09T15:39:53.561Z,3829.7
2022-09-09T15:45:28.684Z,3828.2
2022-09-09T15:51:45.754Z,3830.6
2022-09-09T15:57:21.072Z,3826.9
2022-09-09T16:02:56.324Z,3827.9
2022-09-09T16:08:31.237Z,3828.9
2022-09-09T16:14:06.726Z,3829.2
2022-09-09T16:19:42.425Z,3829.4
2022-09-09T16:25:17.608Z,3827.9
2022-09-09T16:30:53.453Z,3830.9
2022-09-09T16:36:28.474Z,3826.4
2022-09-09T16:42:04.266Z,3826.7
2022-09-09T16:47:39.417Z,3821.5
2022-09-09T16:53:14.806Z,3821.3
2022-09-09T16:58:49.610Z,3822.2
2022-09-09T17:04:24.667Z,3820.7
2022-09-09T17:09:59.445Z,3818.7
2022-09-09T17:15:35.861Z,3823.2
2022-09-09T17:21:11.167Z,3819.2
2022-09-09T17:26:45.716Z,3823.7
2022-09-09T17:32:21.959Z,3824
2022-09-09T17:37:56.805Z,3817
2022-09-09T17:43:31.940Z,3827.4
2022-09-09T17:49:06.914Z,3826.2
2022-09-09T17:54:41.866Z,3828.5
2022-09-09T18:00:18.833Z,3828.5
2022-09-09T18:05:53.585Z,3826
2022-09-09T18:11:28.688Z,3827.4
2022-09-09T18:17:04.497Z,3825.7
2022-09-09T18:22:39.267Z,3826.4
2022-09-09T18:28:14.425Z,3823.5
2022-09-09T18:33:49.203Z,3825.9
2022-09-09T18:39:25.266Z,3824
2022-09-09T18:45:00.364Z,3825.2
2022-09-09T18:50:36.184Z,3824.5
